createdAt,value
2022-08-09T00:00:11.318Z,7.15
2022-08-09T00:02:43.080Z,4.15
2022-08-09T00:06:19.831Z,7.25
2022-08-09T00:08:12.896Z,4.07
2022-08-09T00:10:58.333Z,4.07
2022-08-09T00:13:25.663Z,3.03
2022-08-09T00:15:59.015Z,6.90
2022-08-09T00:18:29.933Z,3.28
2022-08-09T00:20:58.812Z,3.67
2022-08-09T00:23:55.554Z,3.58
2022-08-09T00:26:13.739Z,3.45
2022-08-09T00:28:42.113Z,4.15
2022-08-09T00:31:57.320Z,6.60
2022-08-09T00:34:09.069Z,2.85
2022-08-09T00:36:38.514Z,3.15
2022-08-09T00:39:10.898Z,2.85
2022-08-09T00:44:11.382Z,4.38
2022-08-09T00:44:43.877Z,6.88
2022-08-09T00:47:15.527Z,5.50
2022-08-09T00:49:43.681Z,6.53
2022-08-09T00:52:20.452Z,2.75
2022-08-09T00:54:49.273Z,5.85
2022-08-09T00:57:24.743Z,4.57
2022-08-09T01:00:05.226Z,4.20
2022-08-09T01:02:33.997Z,11.57
2022-08-09T01:05:05.395Z,5.32
2022-08-09T01:08:00.384Z,4.75
2022-08-09T01:10:32.885Z,5.70
2022-08-09T01:13:22.335Z,6.50
2022-08-09T01:15:52.459Z,5.07
2022-08-09T01:18:29.802Z,5.63
2022-08-09T01:21:16.979Z,3.90
2022-08-09T01:24:03.052Z,5.32
2022-08-09T01:26:32.288Z,4.18
2022-08-09T01:29:00.248Z,4.68
2022-08-09T01:32:29.084Z,7.60
2022-08-09T01:34:19.301Z,5.53
2022-08-09T01:36:48.777Z,4.03
2022-08-09T01:39:17.227Z,4.22
2022-08-09T01:41:53.639Z,5.60
2022-08-09T01:44:28.227Z,3.70
2022-08-09T01:46:55.625Z,6.55
2022-08-09T01:49:24.302Z,7.85
2022-08-09T01:51:54.747Z,5.90
2022-08-09T01:54:33.513Z,5.75
2022-08-09T01:57:03.968Z,7.40
2022-08-09T01:59:32.695Z,8.10
2022-08-09T02:02:09.258Z,6.40
2022-08-09T02:04:37.934Z,10.05
2022-08-09T02:08:35.516Z,6.15
2022-08-09T02:10:10.552Z,4.82
2022-08-09T02:12:39.182Z,8.07
2022-08-09T02:15:08.405Z,6.18
2022-08-09T02:18:00.451Z,5.10
2022-08-09T02:20:32.847Z,5.82
2022-08-09T02:23:06.844Z,7.28
2022-08-09T02:25:42.569Z,6.82
2022-08-09T02:28:19.922Z,6.65
2022-08-09T02:31:02.095Z,8.63
2022-08-09T02:33:38.208Z,14.80
2022-08-09T02:36:21.015Z,7.93
2022-08-09T02:38:51.269Z,11.20
2022-08-09T02:41:20.485Z,6.15
2022-08-09T02:43:54.925Z,11.07
2022-08-09T02:46:25.170Z,3.85
2022-08-09T02:48:56.725Z,5.25
2022-08-09T02:51:26.529Z,4.00
2022-08-09T02:54:01.404Z,4.93
2022-08-09T02:56:30.055Z,4.63
2022-08-09T02:58:58.018Z,5.28
2022-08-09T03:01:29.381Z,7.78
2022-08-09T03:04:16.883Z,9.55
2022-08-09T03:06:46.751Z,8.43
2022-08-09T03:09:17.446Z,4.80
2022-08-09T03:12:05.944Z,6.38
2022-08-09T03:14:32.561Z,10.68
2022-08-09T03:17:05.695Z,7.00
2022-08-09T03:19:58.854Z,11.82
2022-08-09T03:22:25.426Z,8.38
2022-08-09T03:25:05.715Z,6.13
2022-08-09T03:27:48.090Z,10.05
2022-08-09T03:30:29.814Z,6.38
2022-08-09T03:33:01.294Z,7.38
2022-08-09T03:38:16.041Z,6.13
2022-08-09T03:40:56.424Z,7.15
2022-08-09T03:43:23.731Z,10.45
2022-08-09T03:46:05.196Z,11.10
2022-08-09T03:48:43.046Z,8.25
2022-08-09T03:51:43.801Z,15.68
2022-08-09T03:54:11.123Z,9.93
2022-08-09T03:56:41.340Z,6.28
2022-08-09T03:59:17.034Z,9.70
2022-08-09T04:01:48.786Z,5.88
2022-08-09T04:04:16.565Z,12.88
2022-08-09T04:06:48.952Z,11.15
2022-08-09T04:09:41.664Z,9.07
2022-08-09T04:12:30.685Z,10.45
2022-08-09T04:15:01.831Z,10.80
2022-08-09T04:17:39.382Z,9.70
2022-08-09T04:20:10.712Z,12.55
2022-08-09T04:22:41.316Z,7.00
2022-08-09T04:25:12.987Z,9.90
2022-08-09T04:27:48.861Z,7.65
2022-08-09T04:30:20.943Z,9.57
2022-08-09T04:32:51.005Z,10.23
2022-08-09T04:35:21.905Z,11.95
2022-08-09T04:37:49.976Z,7.28
2022-08-09T04:40:19.207Z,8.55
2022-08-09T04:42:56.737Z,13.77
2022-08-09T04:45:24.478Z,12.07
2022-08-09T04:48:02.084Z,7.43
2022-08-09T04:50:33.594Z,7.28
2022-08-09T04:53:02.644Z,7.88
2022-08-09T04:55:38.215Z,14.50
2022-08-09T04:58:09.435Z,10.52
2022-08-09T05:00:37.317Z,11.02
2022-08-09T05:03:12.903Z,10.98
2022-08-09T05:06:06.503Z,6.88
2022-08-09T05:08:35.051Z,10.88
2022-08-09T05:11:02.940Z,9.60
2022-08-09T05:13:33.223Z,17.50
2022-08-09T05:16:01.601Z,9.02
2022-08-09T05:18:55.101Z,7.05
2022-08-09T05:21:24.439Z,10.93
2022-08-09T05:23:59.530Z,9.68
2022-08-09T05:26:37.210Z,8.32
2022-08-09T05:29:17.440Z,16.27
2022-08-09T05:31:56.456Z,9.80
2022-08-09T05:34:31.115Z,11.63
2022-08-09T05:37:01.538Z,9.80
2022-08-09T05:39:36.067Z,8.95
2022-08-09T05:42:17.841Z,7.45
2022-08-09T05:44:50.630Z,11.50
2022-08-09T05:47:18.934Z,9.88
2022-08-09T05:50:25.100Z,11.95
2022-08-09T05:52:33.725Z,5.13
2022-08-09T05:55:03.295Z,7.82
2022-08-09T05:57:51.036Z,6.78
2022-08-09T06:00:25.463Z,8.15
2022-08-09T06:02:54.249Z,3.67
2022-08-09T06:05:31.149Z,5.35
2022-08-09T06:08:11.820Z,4.93
2022-08-09T06:10:39.527Z,4.75
2022-08-09T06:13:12.088Z,4.57
2022-08-09T06:15:46.729Z,3.20
2022-08-09T06:18:15.887Z,5.95
2022-08-09T06:20:54.211Z,2.95
2022-08-09T06:23:22.597Z,2.67
2022-08-09T06:26:09.915Z,4.28
2022-08-09T06:28:37.245Z,2.50
2022-08-09T06:31:04.653Z,2.47
2022-08-09T06:33:41.572Z,4.40
2022-08-09T06:36:11.868Z,6.53
2022-08-09T06:38:43.029Z,3.30
2022-08-09T06:41:20.461Z,3.00
2022-08-09T06:43:48.955Z,3.75
2022-08-09T06:46:40.485Z,4.00
2022-08-09T06:49:04.741Z,2.22
2022-08-09T06:51:33.716Z,2.90
2022-08-09T06:54:12.475Z,3.17
2022-08-09T06:56:45.517Z,5.55
2022-08-09T07:00:49.456Z,5.63
2022-08-09T07:02:04.555Z,2.55
2022-08-09T07:04:32.544Z,3.70
2022-08-09T07:07:01.031Z,2.70
2022-08-09T07:09:55.069Z,5.68
2022-08-09T07:12:20.287Z,8.65
2022-08-09T07:14:51.147Z,5.80
2022-08-09T07:17:19.927Z,3.57
2022-08-09T07:19:47.925Z,3.20
2022-08-09T07:22:18.238Z,3.93
2022-08-09T07:24:49.300Z,6.60
2022-08-09T07:27:26.750Z,3.80
2022-08-09T07:30:01.573Z,2.55
2022-08-09T07:32:32.662Z,5.68
2022-08-09T07:35:07.783Z,5.05
2022-08-09T07:37:44.183Z,4.30
2022-08-09T07:40:13.303Z,2.75
2022-08-09T07:42:54.909Z,2.78
2022-08-09T07:45:39.502Z,2.45
2022-08-09T07:48:25.439Z,4.03
2022-08-09T07:51:10.287Z,4.55
2022-08-09T07:54:05.366Z,2.72
2022-08-09T07:56:30.953Z,2.00
2022-08-09T07:58:59.337Z,6.30
2022-08-09T08:01:33.104Z,3.05
2022-08-09T08:04:01.716Z,2.60
2022-08-09T08:06:32.101Z,3.78
2022-08-09T08:09:04.881Z,2.67
2022-08-09T08:12:24.942Z,1.92
2022-08-09T08:14:21.108Z,1.08
2022-08-09T08:17:07.420Z,5.40
2022-08-09T08:19:35.481Z,3.60
2022-08-09T08:22:03.464Z,1.25
2022-08-09T08:24:39.834Z,2.50
2022-08-09T08:27:17.220Z,3.63
2022-08-09T08:29:50.410Z,1.85
2022-08-09T08:32:29.130Z,2.65
2022-08-09T08:34:58.727Z,1.48
2022-08-09T08:37:41.467Z,1.15
2022-08-09T08:40:14.470Z,2.00
2022-08-09T08:42:47.384Z,0.63
2022-08-09T08:45:15.264Z,1.52
2022-08-09T08:47:45.447Z,1.67
2022-08-09T08:50:15.685Z,0.60
2022-08-09T08:52:59.220Z,1.88
2022-08-09T08:55:28.209Z,4.50
2022-08-09T08:57:56.405Z,1.20
2022-08-09T09:00:27.490Z,1.17
2022-08-09T09:03:04.720Z,4.47
2022-08-09T09:06:00.948Z,4.15
2022-08-09T09:08:30.296Z,1.95
2022-08-09T09:10:58.614Z,7.43
2022-08-09T09:13:42.125Z,1.77
2022-08-09T09:16:13.855Z,3.45
2022-08-09T09:18:48.064Z,1.65
2022-08-09T09:21:26.052Z,1.95
2022-08-09T09:23:58.424Z,2.15
2022-08-09T09:26:34.876Z,1.35
2022-08-09T09:29:10.283Z,0.93
2022-08-09T09:32:06.528Z,1.73
2022-08-09T09:34:38.531Z,2.03
2022-08-09T09:37:31.821Z,1.02
2022-08-09T09:39:59.979Z,1.45
2022-08-09T09:42:30.878Z,1.65
2022-08-09T09:44:59.175Z,1.58
2022-08-09T09:47:28.597Z,4.25
2022-08-09T09:50:15.187Z,2.33
2022-08-09T09:52:54.570Z,0.70
2022-08-09T09:55:32.158Z,1.50
2022-08-09T09:58:17.246Z,1.60
2022-08-09T10:00:54.229Z,2.28
2022-08-09T10:03:39.685Z,3.13
2022-08-09T10:06:07.505Z,2.30
2022-08-09T10:08:43.209Z,1.58
2022-08-09T10:14:30.464Z,1.38
2022-08-09T10:17:05.265Z,3.22
2022-08-09T10:19:45.800Z,1.50
2022-08-09T10:22:13.349Z,2.03
2022-08-09T10:24:41.267Z,3.03
2022-08-09T10:27:17.391Z,1.42
2022-08-09T10:30:43.498Z,1.80
2022-08-09T10:32:42.670Z,2.53
2022-08-09T10:35:13.314Z,3.97
2022-08-09T10:37:42.100Z,2.08
2022-08-09T10:40:11.927Z,2.10
2022-08-09T10:42:57.400Z,1.05
2022-08-09T10:45:24.849Z,1.00
2022-08-09T10:48:29.308Z,2.20
2022-08-09T10:51:12.124Z,0.78
2022-08-09T10:53:54.786Z,5.65
2022-08-09T10:56:26.933Z,4.68
2022-08-09T10:58:55.246Z,5.57
2022-08-09T11:03:06.601Z,4.53
2022-08-09T11:07:01.657Z,2.70
2022-08-09T11:09:47.515Z,3.25
2022-08-09T11:12:18.792Z,2.75
2022-08-09T11:14:54.881Z,4.10
2022-08-09T11:17:23.749Z,3.65
2022-08-09T11:20:10.716Z,2.45
2022-08-09T11:22:44.829Z,3.00
2022-08-09T11:25:17.098Z,3.08
2022-08-09T11:28:02.662Z,2.20
2022-08-09T11:30:35.617Z,0.90
2022-08-09T11:33:05.907Z,3.13
2022-08-09T11:35:49.934Z,3.08
2022-08-09T11:38:32.176Z,1.80
2022-08-09T11:41:23.162Z,0.95
2022-08-09T11:43:52.077Z,5.75
2022-08-09T11:46:33.146Z,2.35
2022-08-09T11:49:04.910Z,1.47
2022-08-09T11:53:02.201Z,4.55
2022-08-09T11:54:40.085Z,2.28
2022-08-09T11:57:28.566Z,3.42
2022-08-09T12:00:16.349Z,2.03
2022-08-09T12:02:45.450Z,3.75
2022-08-09T12:05:22.988Z,4.25
2022-08-09T12:07:50.778Z,4.88
2022-08-09T12:10:38.328Z,1.73
2022-08-09T12:14:09.025Z,1.55
2022-08-09T12:16:01.857Z,3.13
2022-08-09T12:18:33.531Z,3.50
2022-08-09T12:21:02.987Z,1.50
2022-08-09T12:23:47.613Z,3.67
2022-08-09T12:26:19.818Z,1.73
2022-08-09T12:29:15.497Z,5.95
2022-08-09T12:31:58.647Z,1.95
2022-08-09T12:34:40.344Z,3.45
2022-08-09T12:37:21.466Z,2.50
2022-08-09T12:40:02.233Z,0.73
2022-08-09T12:42:30.186Z,2.78
2022-08-09T12:44:59.421Z,2.60
2022-08-09T12:47:27.535Z,2.80
2022-08-09T12:50:19.968Z,2.15
2022-08-09T12:53:09.627Z,3.60
2022-08-09T12:56:12.175Z,0.40
2022-08-09T12:58:27.816Z,2.88
2022-08-09T13:00:56.205Z,2.40
2022-08-09T13:03:57.108Z,1.17
2022-08-09T13:06:42.053Z,3.83
2022-08-09T13:09:19.750Z,1.30
2022-08-09T13:11:49.923Z,2.78
2022-08-09T13:14:40.663Z,3.30
2022-08-09T13:17:15.820Z,4.15
2022-08-09T13:20:11.302Z,1.65
2022-08-09T13:23:00.333Z,3.63
2022-08-09T13:25:23.108Z,4.03
2022-08-09T13:27:55.161Z,4.25
2022-08-09T13:32:09.744Z,0.90
2022-08-09T13:33:17.186Z,0.88
2022-08-09T13:36:38.276Z,3.05
2022-08-09T13:38:55.530Z,4.00
2022-08-09T13:41:58.727Z,2.17
2022-08-09T13:44:13.650Z,1.83
2022-08-09T13:47:26.446Z,1.42
2022-08-09T13:49:37.854Z,7.00
2022-08-09T13:52:19.700Z,1.80
2022-08-09T13:54:59.057Z,4.07
2022-08-09T13:57:37.297Z,4.63
2022-08-09T14:00:09.216Z,2.20
2022-08-09T14:02:42.891Z,2.00
2022-08-09T14:05:59.765Z,3.42
2022-08-09T14:08:11.060Z,3.83
2022-08-09T14:10:49.167Z,3.13
2022-08-09T14:13:27.882Z,3.35
2022-08-09T14:16:11.073Z,5.57
2022-08-09T14:18:45.532Z,3.08
2022-08-09T14:21:17.948Z,2.05
2022-08-09T14:23:53.650Z,6.78
2022-08-09T14:26:25.465Z,3.10
2022-08-09T14:29:01.523Z,2.78
2022-08-09T14:31:35.880Z,2.50
2022-08-09T14:34:27.490Z,2.35
2022-08-09T14:37:00.717Z,4.20
2022-08-09T14:39:40.325Z,4.53
2022-08-09T14:42:31.410Z,3.33
2022-08-09T14:46:39.777Z,2.67
2022-08-09T14:47:57.926Z,9.38
2022-08-09T14:50:27.582Z,5.40
2022-08-09T14:52:54.963Z,3.42
2022-08-09T14:55:22.522Z,0.82
2022-08-09T14:57:49.936Z,2.42
2022-08-09T15:00:17.810Z,2.67
2022-08-09T15:02:47.102Z,2.17
2022-08-09T15:05:16.914Z,4.35
2022-08-09T15:07:45.421Z,3.70
2022-08-09T15:10:14.263Z,2.13
2022-08-09T15:12:45.102Z,2.90
2022-08-09T15:15:13.159Z,3.67
2022-08-09T15:17:41.584Z,3.20
2022-08-09T15:20:11.767Z,6.43
2022-08-09T15:22:46.686Z,5.90
2022-08-09T15:25:14.742Z,2.30
2022-08-09T15:28:02.924Z,3.42
2022-08-09T15:30:58.791Z,5.68
2022-08-09T15:33:28.057Z,4.63
2022-08-09T15:36:05.970Z,4.30
2022-08-09T15:38:36.094Z,6.25
2022-08-09T15:41:09.576Z,4.05
2022-08-09T15:43:38.946Z,7.00
2022-08-09T15:46:28.292Z,8.48
2022-08-09T15:49:20.495Z,4.07
2022-08-09T15:52:02.829Z,3.38
2022-08-09T15:54:35.537Z,3.90
2022-08-09T15:57:09.945Z,2.40
2022-08-09T15:59:37.512Z,6.32
2022-08-09T16:02:05.578Z,7.57
2022-08-09T16:04:34.871Z,1.70
2022-08-09T16:07:04.521Z,3.47
2022-08-09T16:09:57.810Z,6.72
2022-08-09T16:12:19.408Z,3.75
2022-08-09T16:14:47.286Z,2.15
2022-08-09T16:17:16.913Z,7.55
2022-08-09T16:19:49.087Z,1.35
2022-08-09T16:22:32.060Z,1.30
2022-08-09T16:25:01.480Z,6.47
2022-08-09T16:27:29.792Z,7.15
2022-08-09T16:30:01.110Z,6.40
2022-08-09T16:32:53.349Z,3.85
2022-08-09T16:35:53.012Z,6.45
2022-08-09T16:38:10.286Z,3.10
2022-08-09T16:40:40.570Z,4.18
2022-08-09T16:43:08.741Z,6.80
2022-08-09T16:45:41.649Z,6.32
2022-08-09T16:48:43.283Z,3.97
2022-08-09T16:51:08.415Z,6.85
2022-08-09T16:54:02.495Z,5.50
2022-08-09T16:56:30.456Z,7.13
2022-08-09T16:58:58.847Z,5.13
2022-08-09T17:01:26.417Z,7.25
2022-08-09T17:03:54.474Z,8.27
2022-08-09T17:06:31.898Z,4.88
2022-08-09T17:09:12.025Z,8.30
2022-08-09T17:11:48.077Z,4.35
2022-08-09T17:14:25.701Z,1.98
2022-08-09T17:16:56.805Z,3.53
2022-08-09T17:19:27.815Z,2.00
2022-08-09T17:22:15.306Z,1.13
2022-08-09T17:24:47.698Z,1.00
2022-08-09T17:27:22.153Z,2.30
2022-08-09T17:29:49.897Z,3.03
2022-08-09T17:32:20.401Z,6.80
2022-08-09T17:35:07.672Z,1.58
2022-08-09T17:38:12.578Z,2.00
2022-08-09T17:40:28.213Z,4.18
2022-08-09T17:42:59.658Z,2.58
2022-08-09T17:46:04.430Z,1.08
2022-08-09T17:48:18.550Z,1.15
2022-08-09T17:50:59.218Z,2.03
2022-08-09T17:53:28.368Z,1.42
2022-08-09T17:56:03.226Z,1.50
2022-08-09T17:58:35.221Z,1.77
2022-08-09T18:01:02.541Z,1.83
2022-08-09T18:03:30.408Z,1.65
2022-08-09T18:06:00.860Z,2.58
2022-08-09T18:08:29.157Z,2.75
2022-08-09T18:11:01.801Z,2.30
2022-08-09T18:13:43.458Z,6.68
2022-08-09T18:16:30.264Z,4.00
2022-08-09T18:19:03.642Z,2.75
2022-08-09T18:21:46.353Z,1.70
2022-08-09T18:24:17.570Z,2.00
2022-08-09T18:26:46.870Z,3.95
2022-08-09T18:30:35.655Z,2.47
2022-08-09T18:32:07.320Z,2.58
2022-08-09T18:34:39.043Z,0.90
2022-08-09T18:37:10.147Z,0.45
2022-08-09T18:39:39.541Z,3.70
2022-08-09T18:42:09.290Z,1.98
2022-08-09T18:44:36.657Z,1.13
2022-08-09T18:47:09.618Z,1.85
2022-08-09T18:49:46.166Z,1.65
2022-08-09T18:52:15.886Z,2.97
2022-08-09T18:54:52.651Z,0.65
2022-08-09T18:57:22.409Z,3.08
2022-08-09T18:59:55.456Z,5.28
2022-08-09T19:02:32.076Z,4.43
2022-08-09T19:05:14.975Z,0.70
2022-08-09T19:08:04.118Z,1.38
2022-08-09T19:10:39.341Z,2.97
2022-08-09T19:13:22.615Z,1.52
2022-08-09T19:15:51.828Z,4.95
2022-08-09T19:18:33.036Z,1.83
2022-08-09T19:21:02.601Z,1.45
2022-08-09T19:24:31.472Z,2.58
2022-08-09T19:26:17.714Z,0.93
2022-08-09T19:28:48.832Z,4.70
2022-08-09T19:31:16.939Z,6.80
2022-08-09T19:33:44.277Z,0.95
2022-08-09T19:36:13.494Z,4.07
2022-08-09T19:38:41.063Z,1.25
2022-08-09T19:41:10.257Z,0.80
2022-08-09T19:44:02.206Z,2.00
2022-08-09T19:46:35.482Z,2.65
2022-08-09T19:50:09.646Z,1.65
2022-08-09T19:51:55.489Z,2.70
2022-08-09T19:54:25.070Z,1.08
2022-08-09T19:56:52.753Z,1.10
2022-08-09T19:59:57.214Z,0.82
2022-08-09T20:02:18.197Z,2.88
2022-08-09T20:04:56.097Z,0.35
2022-08-09T20:07:26.273Z,1.00
2022-08-09T20:10:17.887Z,0.90
2022-08-09T20:12:51.848Z,3.42
2022-08-09T20:16:35.369Z,1.85
2022-08-09T20:18:08.253Z,0.90
2022-08-09T20:20:37.708Z,0.45
2022-08-09T20:23:06.852Z,2.92
2022-08-09T20:25:49.539Z,1.98
2022-08-09T20:28:28.072Z,2.55
2022-08-09T20:31:02.638Z,1.52
2022-08-09T20:33:41.002Z,6.22
2022-08-09T20:36:09.465Z,4.45
2022-08-09T20:41:35.589Z,2.75
2022-08-09T20:44:06.967Z,2.85
2022-08-09T20:46:44.297Z,4.50
2022-08-09T20:49:16.067Z,2.92
2022-08-09T20:51:45.083Z,2.80
2022-08-09T20:54:18.041Z,3.30
2022-08-09T20:56:46.901Z,2.13
2022-08-09T20:59:17.189Z,2.80
2022-08-09T21:01:50.344Z,4.32
2022-08-09T21:05:51.133Z,2.83
2022-08-09T21:07:11.360Z,1.00
2022-08-09T21:09:56.584Z,0.60
2022-08-09T21:15:17.347Z,1.10
2022-08-09T21:18:22.064Z,1.23
2022-08-09T21:20:38.623Z,0.93
2022-08-09T21:23:09.267Z,2.92
2022-08-09T21:25:56.432Z,1.35
2022-08-09T21:28:34.529Z,1.40
2022-08-09T21:31:17.343Z,2.35
2022-08-09T21:33:50.367Z,3.30
2022-08-09T21:36:19.328Z,2.23
2022-08-09T21:38:56.697Z,2.53
2022-08-09T21:42:04.189Z,1.75
2022-08-09T21:44:32.427Z,2.13
2022-08-09T21:47:00.828Z,1.27
2022-08-09T21:49:29.087Z,3.13
2022-08-09T21:52:08.030Z,3.72
2022-08-09T21:54:46.065Z,6.47
2022-08-09T21:57:36.883Z,6.18
2022-08-09T22:00:01.089Z,1.75
2022-08-09T22:02:35.964Z,3.15
2022-08-09T22:05:08.886Z,2.72
2022-08-09T22:07:52.136Z,3.47
2022-08-09T22:10:22.174Z,4.20
2022-08-09T22:12:50.695Z,2.97
2022-08-09T22:15:20.751Z,1.35
2022-08-09T22:18:00.693Z,4.80
2022-08-09T22:20:31.369Z,2.65
2022-08-09T22:22:58.930Z,2.05
2022-08-09T22:26:08.248Z,3.38
2022-08-09T22:28:13.815Z,1.40
2022-08-09T22:30:57.099Z,3.22
2022-08-09T22:33:25.580Z,1.13
2022-08-09T22:36:05.444Z,4.20
2022-08-09T22:38:36.660Z,6.05
2022-08-09T22:41:04.982Z,1.45
2022-08-09T22:44:02.336Z,4.97
2022-08-09T22:48:16.425Z,2.83
2022-08-09T22:49:10.346Z,3.70
2022-08-09T22:51:39.299Z,1.65
2022-08-09T22:54:07.989Z,4.10
2022-08-09T22:56:41.431Z,5.20
2022-08-09T22:59:57.879Z,2.03
2022-08-09T23:01:56.928Z,3.83
2022-08-09T23:04:25.514Z,1.35
2022-08-09T23:07:13.825Z,3.50
2022-08-09T23:09:41.642Z,2.75
2022-08-09T23:12:09.417Z,5.18
2022-08-09T23:14:41.261Z,3.75
2022-08-09T23:17:10.077Z,2.38
2022-08-09T23:20:00.619Z,6.75
2022-08-09T23:22:24.879Z,3.35
2022-08-09T23:24:52.180Z,3.30
2022-08-09T23:27:19.479Z,1.40
2022-08-09T23:29:46.791Z,3.90
2022-08-09T23:32:14.127Z,1.55
2022-08-09T23:34:41.441Z,2.28
2022-08-09T23:37:09.216Z,2.67
2022-08-09T23:39:36.572Z,4.85
2022-08-09T23:42:03.997Z,4.50
2022-08-09T23:44:31.339Z,4.35
2022-08-09T23:46:58.616Z,3.80
2022-08-09T23:49:28.713Z,3.42
2022-08-09T23:51:56.133Z,4.90
2022-08-09T23:54:26.635Z,1.38
2022-08-09T23:56:56.084Z,3.38
2022-08-09T23:59:25.486Z,5.05
